createdAt,value
2017-10-13T00:01:13.426Z,13.67
2017-10-13T00:03:43.174Z,13.69
2017-10-13T00:06:13.305Z,13.69
2017-10-13T00:08:43.987Z,13.69
2017-10-13T00:11:13.998Z,13.72
2017-10-13T00:13:44.392Z,13.73
2017-10-13T00:16:13.728Z,13.75
2017-10-13T00:18:43.963Z,13.74
2017-10-13T00:21:13.457Z,13.70
2017-10-13T00:23:42.729Z,13.68
2017-10-13T00:26:12.897Z,13.70
2017-10-13T00:28:42.042Z,13.69
2017-10-13T00:31:11.178Z,13.74
2017-10-13T00:33:42.118Z,13.72
2017-10-13T00:36:11.243Z,13.73
2017-10-13T00:38:42.051Z,13.74
2017-10-13T00:41:11.253Z,13.80
2017-10-13T00:43:40.347Z,13.75
2017-10-13T00:46:09.500Z,13.79
2017-10-13T00:48:39.705Z,13.82
2017-10-13T00:51:09.518Z,13.82
2017-10-13T00:53:38.690Z,13.81
2017-10-13T00:56:07.967Z,13.81
2017-10-13T00:58:37.166Z,13.84
2017-10-13T01:01:06.311Z,13.86
2017-10-13T01:03:35.485Z,13.87
2017-10-13T01:06:04.635Z,13.86
2017-10-13T01:08:33.743Z,13.87
2017-10-13T01:11:02.957Z,13.83
2017-10-13T01:13:32.096Z,13.79
2017-10-13T01:16:01.974Z,13.76
2017-10-13T01:18:31.701Z,13.73
2017-10-13T01:21:00.818Z,13.67
2017-10-13T01:23:29.960Z,13.59
2017-10-13T01:26:00.958Z,13.55
2017-10-13T01:28:30.081Z,13.55
2017-10-13T01:30:59.249Z,13.58
2017-10-13T01:33:28.582Z,13.59
2017-10-13T01:35:57.782Z,13.56
2017-10-13T01:38:26.910Z,13.57
2017-10-13T01:40:56.211Z,13.56
2017-10-13T01:43:25.438Z,13.51
2017-10-13T01:45:54.566Z,13.55
2017-10-13T01:48:23.881Z,13.56
2017-10-13T01:50:53.030Z,13.55
2017-10-13T01:53:22.288Z,13.59
2017-10-13T01:55:52.420Z,13.59
2017-10-13T01:58:21.519Z,13.58
2017-10-13T02:00:50.639Z,13.56
2017-10-13T02:03:20.764Z,13.54
2017-10-13T02:05:49.908Z,13.55
2017-10-13T02:08:19.824Z,13.53
2017-10-13T02:10:48.966Z,13.49
2017-10-13T02:13:18.120Z,13.39
2017-10-13T02:15:47.672Z,13.34
2017-10-13T02:18:16.901Z,13.23
2017-10-13T02:20:46.820Z,13.15
2017-10-13T02:23:16.751Z,13.08
2017-10-13T02:25:47.687Z,13.06
2017-10-13T02:28:16.811Z,13.00
2017-10-13T02:30:46.720Z,12.98
2017-10-13T02:33:16.759Z,12.95
2017-10-13T02:35:46.682Z,12.91
2017-10-13T02:38:15.846Z,12.89
2017-10-13T02:40:45.021Z,12.86
2017-10-13T02:43:15.636Z,12.82
2017-10-13T02:45:45.555Z,12.78
2017-10-13T02:48:15.560Z,12.75
2017-10-13T02:50:44.711Z,12.74
2017-10-13T02:53:14.620Z,12.71
2017-10-13T02:55:43.778Z,12.71
2017-10-13T02:58:12.976Z,12.70
2017-10-13T03:00:42.857Z,12.69
2017-10-13T03:03:12.019Z,12.65
2017-10-13T03:05:41.148Z,12.63
2017-10-13T03:08:11.243Z,12.59
2017-10-13T03:10:41.934Z,12.53
2017-10-13T03:13:11.042Z,12.48
2017-10-13T03:15:40.141Z,12.40
2017-10-13T03:18:09.347Z,12.35
2017-10-13T03:20:38.447Z,12.28
2017-10-13T03:23:07.641Z,12.22
2017-10-13T03:25:37.627Z,12.18
2017-10-13T03:28:06.758Z,12.14
2017-10-13T03:30:36.187Z,12.10
2017-10-13T03:33:06.898Z,12.09
2017-10-13T03:35:37.011Z,12.05
2017-10-13T03:38:07.474Z,12.06
2017-10-13T03:40:36.635Z,12.04
2017-10-13T03:43:06.576Z,12.04
2017-10-13T03:45:36.043Z,12.04
2017-10-13T03:48:05.153Z,12.04
2017-10-13T03:50:34.317Z,12.04
2017-10-13T03:53:04.162Z,12.08
2017-10-13T03:55:33.298Z,12.11
2017-10-13T03:58:02.478Z,12.12
2017-10-13T04:00:32.818Z,12.02
2017-10-13T04:03:01.951Z,12.01
2017-10-13T04:05:31.148Z,12.06
2017-10-13T04:08:00.874Z,12.07
2017-10-13T04:10:30.150Z,12.03
2017-10-13T04:13:00.483Z,11.98
2017-10-13T04:15:31.001Z,11.93
2017-10-13T04:18:00.330Z,11.89
2017-10-13T04:20:29.705Z,11.84
2017-10-13T04:22:59.007Z,11.78
2017-10-13T04:25:28.187Z,11.74
2017-10-13T04:27:57.504Z,11.71
2017-10-13T04:30:27.214Z,11.68
2017-10-13T04:32:56.561Z,11.64
2017-10-13T04:35:25.878Z,11.61
2017-10-13T04:37:55.116Z,11.57
2017-10-13T04:40:24.390Z,11.53
2017-10-13T04:42:53.479Z,11.50
2017-10-13T04:45:22.610Z,11.46
2017-10-13T04:47:51.730Z,11.45
2017-10-13T04:50:21.534Z,11.44
2017-10-13T04:52:50.677Z,11.40
2017-10-13T04:55:19.774Z,11.39
2017-10-13T04:57:48.869Z,11.36
2017-10-13T05:00:19.554Z,11.36
2017-10-13T05:02:49.415Z,11.30
2017-10-13T05:05:18.512Z,11.29
2017-10-13T05:07:48.480Z,11.27
2017-10-13T05:10:17.781Z,11.19
2017-10-13T05:12:46.932Z,11.20
2017-10-13T05:15:16.151Z,11.21
2017-10-13T05:17:46.068Z,11.17
2017-10-13T05:20:15.182Z,11.17
2017-10-13T05:22:44.330Z,11.13
2017-10-13T05:25:13.455Z,11.12
2017-10-13T05:27:42.572Z,11.15
2017-10-13T05:30:11.870Z,11.17
2017-10-13T05:32:41.003Z,11.15
2017-10-13T05:35:10.115Z,11.15
2017-10-13T05:37:39.629Z,11.13
2017-10-13T05:40:08.767Z,11.13
2017-10-13T05:42:37.914Z,11.15
2017-10-13T05:45:07.364Z,11.12
2017-10-13T05:47:36.466Z,11.05
2017-10-13T05:50:05.606Z,11.00
2017-10-13T05:52:35.556Z,11.00
2017-10-13T05:55:05.442Z,11.02
2017-10-13T05:57:34.585Z,11.04
2017-10-13T06:00:04.583Z,11.04
2017-10-13T06:02:33.749Z,11.04
2017-10-13T06:05:03.005Z,11.06
2017-10-13T06:07:32.556Z,11.07
2017-10-13T06:10:02.741Z,11.10
2017-10-13T06:12:32.034Z,11.11
2017-10-13T06:15:02.252Z,11.13
2017-10-13T06:17:32.244Z,11.15
2017-10-13T06:20:01.512Z,11.17
2017-10-13T06:22:30.896Z,11.20
2017-10-13T06:25:01.015Z,11.23
2017-10-13T06:27:30.232Z,11.25
2017-10-13T06:29:59.428Z,11.25
2017-10-13T06:32:28.588Z,11.28
2017-10-13T06:34:57.726Z,11.29
2017-10-13T06:37:27.026Z,11.25
2017-10-13T06:39:56.225Z,11.32
2017-10-13T06:42:25.452Z,11.38
2017-10-13T06:44:55.035Z,11.40
2017-10-13T06:47:24.256Z,11.45
2017-10-13T06:49:53.376Z,11.49
2017-10-13T06:52:22.859Z,11.52
2017-10-13T06:54:53.510Z,11.58
2017-10-13T06:57:24.641Z,11.64
2017-10-13T06:59:54.517Z,11.71
2017-10-13T07:02:23.778Z,11.76
2017-10-13T07:04:53.818Z,11.81
2017-10-13T07:07:22.954Z,11.91
2017-10-13T07:09:52.922Z,12.01
2017-10-13T07:12:22.854Z,12.04
2017-10-13T07:14:51.980Z,12.14
2017-10-13T07:17:21.177Z,12.21
2017-10-13T07:19:51.575Z,12.30
2017-10-13T07:22:21.491Z,12.40
2017-10-13T07:24:50.647Z,12.56
2017-10-13T07:27:19.944Z,12.67
2017-10-13T07:29:49.130Z,12.74
2017-10-13T07:32:19.055Z,12.73
2017-10-13T07:34:48.978Z,12.67
2017-10-13T07:37:18.983Z,12.57
2017-10-13T07:39:48.129Z,12.60
2017-10-13T07:42:18.201Z,12.71
2017-10-13T07:44:47.301Z,12.78
2017-10-13T07:47:16.417Z,12.87
2017-10-13T07:49:47.217Z,12.96
2017-10-13T07:52:17.098Z,12.99
2017-10-13T07:54:46.264Z,12.98
2017-10-13T07:57:15.491Z,13.00
2017-10-13T07:59:44.611Z,13.08
2017-10-13T08:02:13.759Z,13.05
2017-10-13T08:04:42.921Z,13.05
2017-10-13T08:07:12.018Z,13.09
2017-10-13T08:09:41.143Z,13.15
2017-10-13T08:12:11.695Z,13.24
2017-10-13T08:14:40.788Z,13.35
2017-10-13T08:17:09.882Z,13.39
2017-10-13T08:19:39.026Z,13.38
2017-10-13T08:22:09.152Z,13.28
2017-10-13T08:24:39.118Z,13.22
2017-10-13T08:27:08.310Z,13.28
2017-10-13T08:29:37.460Z,13.35
2017-10-13T08:32:06.610Z,13.41
2017-10-13T08:34:35.810Z,13.54
2017-10-13T08:37:05.008Z,13.62
2017-10-13T08:39:34.106Z,13.69
2017-10-13T08:42:04.423Z,13.77
2017-10-13T08:44:33.572Z,13.83
2017-10-13T08:47:02.803Z,13.90
2017-10-13T08:49:32.558Z,13.82
2017-10-13T08:52:02.599Z,13.77
2017-10-13T08:54:31.815Z,13.76
2017-10-13T08:57:01.939Z,13.73
2017-10-13T08:59:31.143Z,13.77
2017-10-13T09:02:00.418Z,13.82
2017-10-13T09:04:29.995Z,13.86
2017-10-13T09:06:59.948Z,13.96
2017-10-13T09:09:29.109Z,14.11
2017-10-13T09:11:59.770Z,14.22
2017-10-13T09:14:29.035Z,14.38
2017-10-13T09:16:58.314Z,14.52
2017-10-13T09:19:27.642Z,14.59
2017-10-13T09:21:56.958Z,14.74
2017-10-13T09:24:27.217Z,14.81
2017-10-13T09:26:56.597Z,14.96
2017-10-13T09:29:25.820Z,15.12
2017-10-13T09:31:55.123Z,15.19
2017-10-13T09:34:24.293Z,15.25
2017-10-13T09:36:53.483Z,15.37
2017-10-13T09:39:22.622Z,15.31
2017-10-13T09:41:52.685Z,15.35
2017-10-13T09:44:21.905Z,15.28
2017-10-13T09:46:51.100Z,15.38
2017-10-13T09:49:21.406Z,15.35
2017-10-13T09:51:51.490Z,15.36
2017-10-13T09:54:21.449Z,15.41
2017-10-13T09:56:50.672Z,15.41
2017-10-13T09:59:19.846Z,15.46
2017-10-13T10:01:49.490Z,15.50
2017-10-13T10:04:18.635Z,15.60
2017-10-13T10:06:48.143Z,15.67
2017-10-13T10:09:19.178Z,15.73
2017-10-13T10:11:48.293Z,15.83
2017-10-13T10:14:17.487Z,15.92
2017-10-13T10:16:47.586Z,15.84
2017-10-13T10:19:16.734Z,16.05
2017-10-13T10:21:57.046Z,16.34
2017-10-13T10:24:26.416Z,16.38
2017-10-13T10:27:04.088Z,16.45
2017-10-13T10:29:34.782Z,16.55
2017-10-13T10:32:08.072Z,17.15
2017-10-13T10:34:38.872Z,17.47
2017-10-13T10:37:08.102Z,17.81
2017-10-13T10:39:37.214Z,18.09
2017-10-13T10:42:07.927Z,18.38
2017-10-13T10:44:37.504Z,18.57
2017-10-13T10:47:06.745Z,18.71
2017-10-13T10:49:35.885Z,19.02
2017-10-13T10:52:05.874Z,19.25
2017-10-13T10:54:35.066Z,19.34
2017-10-13T10:57:04.167Z,19.46
2017-10-13T10:59:34.495Z,19.37
2017-10-13T11:02:03.660Z,19.20
2017-10-13T11:04:32.867Z,19.23
2017-10-13T11:07:04.400Z,19.47
2017-10-13T11:09:33.548Z,19.39
2017-10-13T11:12:03.142Z,19.38
2017-10-13T11:14:33.310Z,19.18
2017-10-13T11:17:02.556Z,19.01
2017-10-13T11:19:31.739Z,18.84
2017-10-13T11:22:01.061Z,18.69
2017-10-13T11:24:30.874Z,18.47
2017-10-13T11:27:00.154Z,18.15
2017-10-13T11:29:30.184Z,18.55
2017-10-13T11:31:59.595Z,19.17
2017-10-13T11:34:28.764Z,19.72
2017-10-13T11:36:59.018Z,20.17
2017-10-13T11:39:29.118Z,20.46
2017-10-13T11:41:59.486Z,20.61
2017-10-13T11:44:28.692Z,21.10
2017-10-13T11:46:58.648Z,21.22
2017-10-13T11:49:27.834Z,21.24
2017-10-13T11:51:59.514Z,21.12
2017-10-13T11:54:28.789Z,20.81
2017-10-13T11:56:58.101Z,20.38
2017-10-13T11:59:27.361Z,19.99
2017-10-13T12:01:56.630Z,19.77
2017-10-13T12:04:28.045Z,19.85
2017-10-13T12:06:58.779Z,20.13
2017-10-13T12:09:28.108Z,20.37
2017-10-13T12:11:57.294Z,20.48
2017-10-13T12:14:29.688Z,20.47
2017-10-13T12:17:00.891Z,20.32
2017-10-13T12:19:30.860Z,20.15
2017-10-13T12:22:00.828Z,20.09
2017-10-13T12:24:30.090Z,20.12
2017-10-13T12:27:01.428Z,20.00
2017-10-13T12:29:34.518Z,19.92
2017-10-13T12:32:04.634Z,19.84
2017-10-13T12:34:35.260Z,19.54
2017-10-13T12:37:04.758Z,19.28
2017-10-13T12:39:36.699Z,19.14
2017-10-13T12:42:05.873Z,19.09
2017-10-13T12:44:34.991Z,19.08
2017-10-13T12:47:06.235Z,19.00
2017-10-13T12:49:36.764Z,19.01
2017-10-13T12:52:08.245Z,18.96
2017-10-13T12:54:38.310Z,18.97
2017-10-13T12:57:07.665Z,19.04
2017-10-13T12:59:38.196Z,19.19
2017-10-13T13:02:08.099Z,19.24
2017-10-13T13:04:37.441Z,19.23
2017-10-13T13:07:07.246Z,19.19
2017-10-13T13:09:36.541Z,19.27
2017-10-13T13:12:05.736Z,19.24
2017-10-13T13:14:36.406Z,19.12
2017-10-13T13:17:09.396Z,19.08
2017-10-13T13:19:38.763Z,19.19
2017-10-13T13:22:08.793Z,19.33
2017-10-13T13:24:38.430Z,19.38
2017-10-13T13:27:09.108Z,19.36
2017-10-13T13:29:39.577Z,19.37
2017-10-13T13:32:12.436Z,19.31
2017-10-13T13:34:43.813Z,19.12
2017-10-13T13:37:17.071Z,18.98
2017-10-13T13:39:49.534Z,18.81
2017-10-13T13:42:21.189Z,18.83
2017-10-13T13:44:50.346Z,18.88
2017-10-13T13:47:19.446Z,18.87
2017-10-13T13:49:48.614Z,18.79
2017-10-13T13:52:17.751Z,18.69
2017-10-13T13:54:47.365Z,18.67
2017-10-13T13:57:16.673Z,18.68
2017-10-13T13:59:46.844Z,18.60
2017-10-13T14:02:16.803Z,18.46
2017-10-13T14:04:47.232Z,18.45
2017-10-13T14:07:16.735Z,18.51
2017-10-13T14:09:45.985Z,18.50
2017-10-13T14:12:17.628Z,18.39
2017-10-13T14:14:47.560Z,18.29
2017-10-13T14:17:17.881Z,18.29
2017-10-13T14:19:48.629Z,18.22
2017-10-13T14:22:20.132Z,18.17
2017-10-13T14:24:50.187Z,18.17
2017-10-13T14:27:21.307Z,18.07
2017-10-13T14:29:51.051Z,18.07
2017-10-13T14:32:22.139Z,18.01
2017-10-13T14:34:51.361Z,18.03
2017-10-13T14:37:20.483Z,18.04
2017-10-13T14:39:50.503Z,17.99
2017-10-13T14:42:20.618Z,17.95
2017-10-13T14:44:49.789Z,17.91
2017-10-13T14:47:19.114Z,17.93
2017-10-13T14:49:49.468Z,17.92
2017-10-13T14:52:18.773Z,17.85
2017-10-13T14:54:48.143Z,17.78
2017-10-13T14:57:17.904Z,17.77
2017-10-13T14:59:47.587Z,17.75
2017-10-13T15:02:18.082Z,17.74
2017-10-13T15:04:47.207Z,17.73
2017-10-13T15:07:16.482Z,17.70
2017-10-13T15:09:45.807Z,17.59
2017-10-13T15:12:14.899Z,17.60
2017-10-13T15:14:43.994Z,17.61
2017-10-13T15:17:14.385Z,17.61
2017-10-13T15:19:44.228Z,17.58
2017-10-13T15:22:13.339Z,17.60
2017-10-13T15:27:55.140Z,17.47
2017-10-13T15:33:41.983Z,17.43
2017-10-13T15:36:17.088Z,17.44
2017-10-13T15:41:57.298Z,17.38
2017-10-13T15:44:29.191Z,17.30
2017-10-13T15:47:04.285Z,17.30
2017-10-13T15:52:46.414Z,17.32
2017-10-13T15:55:15.568Z,17.33
2017-10-13T15:57:44.690Z,17.32
2017-10-13T16:00:14.671Z,17.24
2017-10-13T16:02:43.777Z,17.17
2017-10-13T16:05:13.304Z,17.17
2017-10-13T16:07:43.343Z,17.19
2017-10-13T16:10:13.227Z,17.20
2017-10-13T16:12:42.548Z,17.14
2017-10-13T16:15:11.675Z,17.08
2017-10-13T16:17:40.793Z,17.07
2017-10-13T16:20:09.937Z,17.05
2017-10-13T16:22:40.788Z,17.06
2017-10-13T16:25:10.854Z,17.06
2017-10-13T16:27:39.954Z,17.09
2017-10-13T16:30:09.951Z,17.10
2017-10-13T16:32:39.036Z,17.12
2017-10-13T16:35:08.150Z,17.11
2017-10-13T16:37:37.852Z,17.09
2017-10-13T16:40:07.338Z,17.07
2017-10-13T16:42:37.210Z,17.06
2017-10-13T16:45:06.735Z,17.02
2017-10-13T16:47:35.863Z,16.99
2017-10-13T16:50:04.972Z,16.95
2017-10-13T16:52:34.632Z,16.99
2017-10-13T16:55:04.991Z,17.02
2017-10-13T16:57:35.857Z,17.04
2017-10-13T17:00:05.484Z,16.94
2017-10-13T17:02:37.710Z,16.90
2017-10-13T17:05:06.900Z,16.90
2017-10-13T17:07:39.780Z,16.95
2017-10-13T17:10:09.781Z,17.00
2017-10-13T17:12:44.749Z,17.03
2017-10-13T17:15:13.870Z,17.00
2017-10-13T17:17:43.058Z,17.02
2017-10-13T17:20:13.173Z,17.04
2017-10-13T17:22:43.492Z,17.03
2017-10-13T17:25:13.806Z,17.04
2017-10-13T17:27:44.317Z,16.99
2017-10-13T17:30:15.970Z,16.94
2017-10-13T17:32:45.509Z,16.93
2017-10-13T17:35:14.599Z,16.92
2017-10-13T17:37:43.726Z,16.92
2017-10-13T17:40:14.158Z,16.94
2017-10-13T17:42:43.607Z,16.96
2017-10-13T17:45:13.967Z,16.99
2017-10-13T17:47:43.129Z,16.97
2017-10-13T17:50:12.234Z,16.97
2017-10-13T17:52:41.392Z,16.98
2017-10-13T17:55:11.044Z,16.96
2017-10-13T17:57:40.967Z,16.98
2017-10-13T18:00:11.566Z,17.00
2017-10-13T18:02:40.811Z,17.03
2017-10-13T18:05:10.683Z,17.01
2017-10-13T18:07:40.673Z,16.94
2017-10-13T18:10:10.748Z,16.92
2017-10-13T18:12:40.757Z,16.87
2017-10-13T18:15:09.876Z,16.83
2017-10-13T18:17:39.814Z,16.89
2017-10-13T18:20:08.927Z,16.91
2017-10-13T18:22:38.085Z,16.95
2017-10-13T18:25:08.004Z,16.99
2017-10-13T18:27:37.868Z,17.04
2017-10-13T18:30:06.986Z,17.07
2017-10-13T18:32:36.290Z,17.11
2017-10-13T18:35:05.583Z,17.13
2017-10-13T18:37:34.715Z,17.13
2017-10-13T18:40:04.868Z,17.11
2017-10-13T18:42:34.092Z,17.12
2017-10-13T18:45:03.295Z,17.14
2017-10-13T18:47:32.868Z,17.16
2017-10-13T18:50:03.623Z,17.15
2017-10-13T18:52:33.954Z,17.08
2017-10-13T18:55:03.929Z,17.10
2017-10-13T18:57:33.150Z,17.12
2017-10-13T19:00:02.674Z,17.11
2017-10-13T19:02:32.775Z,17.15
2017-10-13T19:05:02.093Z,17.15
2017-10-13T19:07:31.607Z,17.17
2017-10-13T19:10:01.917Z,17.08
2017-10-13T19:12:31.902Z,17.13
2017-10-13T19:15:01.385Z,17.17
2017-10-13T19:17:30.610Z,17.17
2017-10-13T19:19:59.874Z,17.16
2017-10-13T19:22:30.254Z,17.16
2017-10-13T19:24:59.476Z,17.13
2017-10-13T19:27:28.738Z,17.12
2017-10-13T19:29:58.088Z,17.13
2017-10-13T19:32:27.310Z,17.13
2017-10-13T19:34:57.342Z,17.16
2017-10-13T19:37:26.738Z,17.15
2017-10-13T19:39:56.706Z,17.15
2017-10-13T19:42:25.923Z,17.11
2017-10-13T19:44:56.444Z,17.14
2017-10-13T19:47:25.644Z,17.16
2017-10-13T19:49:54.815Z,17.19
2017-10-13T19:52:25.621Z,17.14
2017-10-13T19:54:54.772Z,17.16
2017-10-13T19:57:23.948Z,17.16
2017-10-13T19:59:53.589Z,17.20
2017-10-13T20:02:23.521Z,17.17
2017-10-13T20:04:52.691Z,17.19
2017-10-13T20:07:21.923Z,17.22
2017-10-13T20:09:51.059Z,17.19
2017-10-13T20:12:21.039Z,17.20
2017-10-13T20:14:51.302Z,17.22
2017-10-13T20:17:20.493Z,17.23
2017-10-13T20:19:49.608Z,17.23
2017-10-13T20:22:18.840Z,17.23
2017-10-13T20:24:47.949Z,17.25
2017-10-13T20:27:17.074Z,17.24
2017-10-13T20:29:46.556Z,17.21
2017-10-13T20:32:15.649Z,17.21
2017-10-13T20:34:44.757Z,17.19
2017-10-13T20:37:13.897Z,17.19
2017-10-13T20:39:44.142Z,17.19
2017-10-13T20:42:13.269Z,17.15
2017-10-13T20:44:43.206Z,17.19
2017-10-13T20:47:13.084Z,17.19
2017-10-13T20:49:42.287Z,17.19
2017-10-13T20:52:11.762Z,17.17
2017-10-13T20:54:40.914Z,17.15
2017-10-13T20:57:10.033Z,17.14
2017-10-13T20:59:39.186Z,17.15
2017-10-13T21:02:09.098Z,17.18
2017-10-13T21:04:38.205Z,17.16
2017-10-13T21:07:07.382Z,17.09
2017-10-13T21:09:36.505Z,17.09
2017-10-13T21:12:05.684Z,17.11
2017-10-13T21:14:35.662Z,17.12
2017-10-13T21:17:04.938Z,17.11
2017-10-13T21:19:34.128Z,17.13
2017-10-13T21:22:03.782Z,17.16
2017-10-13T21:24:32.980Z,17.17
2017-10-13T21:27:02.248Z,17.14
2017-10-13T21:29:31.486Z,17.21
2017-10-13T21:32:00.629Z,17.26
2017-10-13T21:34:31.385Z,17.29
2017-10-13T21:37:01.289Z,17.31
2017-10-13T21:39:31.302Z,17.31
2017-10-13T21:42:00.582Z,17.30
2017-10-13T21:44:31.476Z,17.31
2017-10-13T21:47:01.988Z,17.34
2017-10-13T21:49:31.253Z,17.36
2017-10-13T21:52:01.734Z,17.38
2017-10-13T21:54:31.773Z,17.37
2017-10-13T21:57:01.690Z,17.39
2017-10-13T21:59:32.067Z,17.42
2017-10-13T22:02:01.273Z,17.45
2017-10-13T22:04:30.454Z,17.44
2017-10-13T22:06:59.881Z,17.39
2017-10-13T22:09:29.881Z,17.38
2017-10-13T22:11:59.141Z,17.38
2017-10-13T22:14:28.399Z,17.34
2017-10-13T22:16:57.563Z,17.28
2017-10-13T22:19:26.843Z,17.23
2017-10-13T22:21:56.121Z,17.20
2017-10-13T22:24:26.014Z,17.17
2017-10-13T22:26:55.143Z,17.15
2017-10-13T22:29:24.877Z,17.15
2017-10-13T22:31:53.983Z,17.16
2017-10-13T22:34:23.306Z,17.17
2017-10-13T22:36:52.805Z,17.19
2017-10-13T22:39:21.893Z,17.23
2017-10-13T22:41:50.996Z,17.24
2017-10-13T22:44:21.216Z,17.31
2017-10-13T22:46:51.072Z,17.34
2017-10-13T22:49:20.163Z,17.39
2017-10-13T22:51:50.206Z,17.44
2017-10-13T22:54:19.299Z,17.44
2017-10-13T22:56:49.149Z,17.48
2017-10-13T22:59:18.382Z,17.52
2017-10-13T23:01:47.657Z,17.50
2017-10-13T23:04:16.746Z,17.53
2017-10-13T23:06:46.642Z,17.56
2017-10-13T23:09:15.756Z,17.42
2017-10-13T23:11:44.848Z,17.44
2017-10-13T23:14:14.354Z,17.37
2017-10-13T23:16:43.443Z,17.37
2017-10-13T23:19:12.528Z,17.38
2017-10-13T23:21:43.254Z,17.34
2017-10-13T23:24:13.850Z,17.33
2017-10-13T23:26:42.971Z,17.34
2017-10-13T23:29:12.853Z,17.36
2017-10-13T23:31:42.705Z,17.37
2017-10-13T23:34:11.795Z,17.38
2017-10-13T23:36:42.291Z,17.39
2017-10-13T23:39:11.402Z,17.40
2017-10-13T23:41:40.514Z,17.41
2017-10-13T23:44:10.026Z,17.43
2017-10-13T23:46:39.114Z,17.42
2017-10-13T23:49:08.202Z,17.44
2017-10-13T23:51:37.403Z,17.46
2017-10-13T23:54:07.261Z,17.46
2017-10-13T23:56:36.358Z,17.49
2017-10-13T23:59:05.609Z,17.41
